createdAt,value
2023-03-27T00:02:25.689Z,0.75
2023-03-27T00:04:54.853Z,0.50
2023-03-27T00:07:22.402Z,1.38
2023-03-27T00:09:49.326Z,0.38
2023-03-27T00:12:16.332Z,0.80
2023-03-27T00:14:43.338Z,1.45
2023-03-27T00:17:11.370Z,1.63
2023-03-27T00:19:39.096Z,0.63
2023-03-27T00:22:06.045Z,0.82
2023-03-27T00:24:34.783Z,0.60
2023-03-27T00:27:01.766Z,0.80
2023-03-27T00:29:28.963Z,1.85
2023-03-27T00:31:56.541Z,0.60
2023-03-27T00:34:23.507Z,1.15
2023-03-27T00:36:52.243Z,0.65
2023-03-27T00:39:19.548Z,0.93
2023-03-27T00:41:46.519Z,0.40
2023-03-27T00:44:34.739Z,0.50
2023-03-27T00:47:04.550Z,1.20
2023-03-27T00:49:36.284Z,0.82
2023-03-27T00:52:05.212Z,0.35
2023-03-27T00:54:39.144Z,0.55
2023-03-27T00:57:09.993Z,0.82
2023-03-27T00:59:41.158Z,0.40
2023-03-27T01:02:09.089Z,0.30
2023-03-27T01:04:38.060Z,0.40
2023-03-27T01:07:07.248Z,0.65
2023-03-27T01:09:34.474Z,0.95
2023-03-27T01:12:01.326Z,0.40
2023-03-27T01:14:52.647Z,1.23
2023-03-27T01:17:46.776Z,2.03
2023-03-27T01:20:35.194Z,0.55
2023-03-27T01:24:00.217Z,0.70
2023-03-27T01:26:52.024Z,0.50
2023-03-27T01:29:25.619Z,0.52
2023-03-27T01:32:30.365Z,0.80
2023-03-27T01:35:26.026Z,0.70
2023-03-27T01:38:04.862Z,0.57
2023-03-27T01:40:47.887Z,2.00
2023-03-27T01:43:19.773Z,0.75
2023-03-27T01:46:07.171Z,0.77
2023-03-27T01:48:43.136Z,0.70
2023-03-27T01:51:17.256Z,0.40
2023-03-27T01:53:52.946Z,1.05
2023-03-27T01:56:31.717Z,0.30
2023-03-27T01:59:09.738Z,0.75
2023-03-27T02:01:40.353Z,0.65
2023-03-27T02:04:15.940Z,0.50
2023-03-27T02:06:50.663Z,0.43
2023-03-27T02:09:24.322Z,0.50
2023-03-27T02:11:59.361Z,0.60
2023-03-27T02:14:33.977Z,0.30
2023-03-27T02:17:10.468Z,1.10
2023-03-27T02:19:57.225Z,0.60
2023-03-27T02:22:38.046Z,1.10
2023-03-27T02:25:24.627Z,0.38
2023-03-27T02:28:03.366Z,1.20
2023-03-27T02:30:34.271Z,1.85
2023-03-27T02:33:30.319Z,0.85
2023-03-27T02:36:00.762Z,0.32
2023-03-27T02:38:40.198Z,2.10
2023-03-27T02:41:48.566Z,0.60
2023-03-27T02:44:21.320Z,0.40
2023-03-27T02:46:58.061Z,0.50
2023-03-27T02:49:49.094Z,0.40
2023-03-27T02:52:52.396Z,0.95
2023-03-27T02:55:35.930Z,1.65
2023-03-27T02:58:11.383Z,0.75
2023-03-27T03:00:44.116Z,1.60
2023-03-27T03:03:19.366Z,0.68
2023-03-27T03:05:46.768Z,0.35
2023-03-27T03:08:15.051Z,0.60
2023-03-27T03:10:46.341Z,0.68
2023-03-27T03:13:13.349Z,0.43
2023-03-27T03:15:40.611Z,1.63
2023-03-27T03:18:08.131Z,0.30
2023-03-27T03:20:35.836Z,1.38
2023-03-27T03:23:03.167Z,0.40
2023-03-27T03:25:31.700Z,0.50
2023-03-27T03:27:58.770Z,1.40
2023-03-27T03:30:27.799Z,1.95
2023-03-27T03:32:58.169Z,1.67
2023-03-27T03:35:25.870Z,0.30
2023-03-27T03:37:58.070Z,0.60
2023-03-27T03:40:24.980Z,0.28
2023-03-27T03:42:53.012Z,0.88
2023-03-27T03:45:20.535Z,1.13
2023-03-27T03:47:48.086Z,1.55
2023-03-27T03:50:15.200Z,1.23
2023-03-27T03:52:42.294Z,1.42
2023-03-27T03:55:12.813Z,0.30
2023-03-27T03:57:39.791Z,0.68
2023-03-27T04:00:12.527Z,0.85
2023-03-27T04:02:41.691Z,0.60
2023-03-27T04:05:10.100Z,0.68
2023-03-27T04:07:38.002Z,0.60
2023-03-27T04:10:05.387Z,1.13
2023-03-27T04:12:32.280Z,0.30
2023-03-27T04:14:59.231Z,1.17
2023-03-27T04:17:26.878Z,0.40
2023-03-27T04:19:57.617Z,0.93
2023-03-27T04:22:24.893Z,0.35
2023-03-27T04:24:51.935Z,1.35
2023-03-27T04:27:18.885Z,8.55
2023-03-27T04:29:47.704Z,3.50
2023-03-27T04:32:19.530Z,1.38
2023-03-27T04:34:50.557Z,5.72
2023-03-27T04:37:23.166Z,5.47
2023-03-27T04:39:50.666Z,1.67
2023-03-27T04:42:17.573Z,4.13
2023-03-27T04:44:46.460Z,2.67
2023-03-27T04:47:13.656Z,4.97
2023-03-27T04:49:47.190Z,4.57
2023-03-27T04:52:14.492Z,2.13
2023-03-27T04:54:42.375Z,1.35
2023-03-27T04:57:10.525Z,3.83
2023-03-27T04:59:37.683Z,1.88
2023-03-27T05:02:05.962Z,7.32
2023-03-27T05:04:33.043Z,2.47
2023-03-27T05:07:00.620Z,33.60
2023-03-27T05:09:27.656Z,12.70
2023-03-27T05:11:54.549Z,6.65
2023-03-27T05:14:23.365Z,10.55
2023-03-27T05:16:52.562Z,9.50
2023-03-27T05:19:20.461Z,15.15
2023-03-27T05:21:47.628Z,16.77
2023-03-27T05:24:16.006Z,14.75
2023-03-27T05:26:43.641Z,8.02
2023-03-27T05:29:10.816Z,18.60
2023-03-27T05:31:37.808Z,12.60
2023-03-27T05:34:06.057Z,9.63
2023-03-27T05:36:33.304Z,31.88
2023-03-27T05:39:00.345Z,10.38
2023-03-27T05:41:27.285Z,10.70
2023-03-27T05:43:54.344Z,9.65
2023-03-27T05:46:21.793Z,13.90
2023-03-27T05:48:49.241Z,3.38
2023-03-27T05:51:16.335Z,6.38
2023-03-27T05:53:43.416Z,13.60
2023-03-27T05:56:10.882Z,5.25
2023-03-27T05:58:39.101Z,2.42
2023-03-27T06:01:06.271Z,2.05
2023-03-27T06:03:36.924Z,7.05
2023-03-27T06:06:11.776Z,5.70
2023-03-27T06:08:39.170Z,4.15
2023-03-27T06:11:13.657Z,6.43
2023-03-27T06:13:40.691Z,4.03
2023-03-27T06:16:08.392Z,3.03
2023-03-27T06:18:35.486Z,21.10
2023-03-27T06:21:02.421Z,3.75
2023-03-27T06:23:29.994Z,4.10
2023-03-27T06:25:57.172Z,3.10
2023-03-27T06:28:24.378Z,24.45
2023-03-27T06:30:51.531Z,3.95
2023-03-27T06:33:18.846Z,7.95
2023-03-27T06:35:53.449Z,5.07
2023-03-27T06:38:21.567Z,4.53
2023-03-27T06:40:48.539Z,28.77
2023-03-27T06:43:19.286Z,23.45
2023-03-27T06:45:50.223Z,15.02
2023-03-27T06:48:21.921Z,10.15
2023-03-27T06:50:52.038Z,10.25
2023-03-27T06:53:27.329Z,10.50
2023-03-27T06:55:55.808Z,13.27
2023-03-27T06:58:23.072Z,5.07
2023-03-27T07:00:50.595Z,9.98
2023-03-27T07:03:19.518Z,10.88
2023-03-27T07:05:46.680Z,9.93
2023-03-27T07:08:23.225Z,5.07
2023-03-27T07:11:03.822Z,4.25
2023-03-27T07:13:38.481Z,4.03
2023-03-27T07:16:06.269Z,9.48
2023-03-27T07:18:33.365Z,5.47
2023-03-27T07:21:00.875Z,5.05
2023-03-27T07:23:28.186Z,3.40
2023-03-27T07:26:00.152Z,2.38
2023-03-27T07:28:28.286Z,6.72
2023-03-27T07:30:55.556Z,2.28
2023-03-27T07:33:23.173Z,6.68
2023-03-27T07:35:50.309Z,2.25
2023-03-27T07:38:18.657Z,6.05
2023-03-27T07:40:46.826Z,4.20
2023-03-27T07:43:14.654Z,1.65
2023-03-27T07:45:42.427Z,2.95
2023-03-27T07:48:15.214Z,1.60
2023-03-27T07:50:43.478Z,1.13
2023-03-27T07:53:34.305Z,5.32
2023-03-27T07:56:01.018Z,1.73
2023-03-27T07:58:28.257Z,9.23
2023-03-27T08:01:02.700Z,1.77
2023-03-27T08:03:31.356Z,1.58
2023-03-27T08:06:00.570Z,3.03
2023-03-27T08:08:28.801Z,1.98
2023-03-27T08:10:57.468Z,2.03
2023-03-27T08:13:24.752Z,1.40
2023-03-27T08:15:52.195Z,1.30
2023-03-27T08:18:19.363Z,1.77
2023-03-27T08:20:48.191Z,1.27
2023-03-27T08:23:15.707Z,1.50
2023-03-27T08:25:43.226Z,1.15
2023-03-27T08:28:10.250Z,1.45
2023-03-27T08:30:37.660Z,2.17
2023-03-27T08:33:05.253Z,1.65
2023-03-27T08:35:32.822Z,2.10
2023-03-27T08:37:59.785Z,1.10
2023-03-27T08:40:29.534Z,3.83
2023-03-27T08:43:02.398Z,0.93
2023-03-27T08:45:55.107Z,1.23
2023-03-27T08:48:51.162Z,0.75
2023-03-27T08:51:25.715Z,2.03
2023-03-27T08:54:08.363Z,2.60
2023-03-27T08:56:37.939Z,1.02
2023-03-27T08:59:12.089Z,0.40
2023-03-27T09:01:51.558Z,0.82
2023-03-27T09:04:32.293Z,4.65
2023-03-27T09:07:29.919Z,1.73
2023-03-27T09:09:59.903Z,1.85
2023-03-27T09:13:05.579Z,1.00
2023-03-27T09:15:48.641Z,0.90
2023-03-27T09:18:31.595Z,0.93
2023-03-27T09:21:20.179Z,3.00
2023-03-27T09:23:49.534Z,2.20
2023-03-27T09:26:36.255Z,4.00
2023-03-27T09:29:22.615Z,4.95
2023-03-27T09:31:52.590Z,3.53
2023-03-27T09:34:28.072Z,3.03
2023-03-27T09:36:56.338Z,2.17
2023-03-27T09:39:32.946Z,1.88
2023-03-27T09:42:09.615Z,3.67
2023-03-27T09:44:41.995Z,3.25
2023-03-27T09:48:01.790Z,1.75
2023-03-27T09:50:41.883Z,1.70
2023-03-27T09:53:10.801Z,1.10
2023-03-27T09:55:46.149Z,1.85
2023-03-27T09:58:31.513Z,1.15
2023-03-27T10:01:17.303Z,0.90
2023-03-27T10:03:53.437Z,2.70
2023-03-27T10:06:31.358Z,1.63
2023-03-27T10:09:07.482Z,0.40
2023-03-27T10:11:36.396Z,1.25
2023-03-27T10:14:13.891Z,0.70
2023-03-27T10:16:42.767Z,0.77
2023-03-27T10:19:24.000Z,3.17
2023-03-27T10:24:28.386Z,2.15
2023-03-27T10:27:06.255Z,3.40
2023-03-27T10:29:35.644Z,0.38
2023-03-27T10:32:06.251Z,0.80
2023-03-27T10:34:40.256Z,0.73
2023-03-27T10:37:30.121Z,1.25
2023-03-27T10:40:02.652Z,1.95
2023-03-27T10:42:32.948Z,1.52
2023-03-27T10:45:01.178Z,0.87
2023-03-27T10:47:32.456Z,1.05
2023-03-27T10:50:08.762Z,1.10
2023-03-27T10:52:53.494Z,0.60
2023-03-27T10:55:29.251Z,2.47
2023-03-27T10:58:00.986Z,1.02
2023-03-27T11:00:39.472Z,1.40
2023-03-27T11:03:36.096Z,0.30
2023-03-27T11:06:08.229Z,0.85
2023-03-27T11:08:50.113Z,1.00
2023-03-27T11:11:23.180Z,0.55
2023-03-27T11:13:50.343Z,1.65
2023-03-27T11:16:27.656Z,0.85
2023-03-27T11:19:14.684Z,0.70
2023-03-27T11:21:54.130Z,1.90
2023-03-27T11:24:44.559Z,0.40
2023-03-27T11:27:21.420Z,0.30
2023-03-27T11:30:05.528Z,0.73
2023-03-27T11:32:41.578Z,0.32
2023-03-27T11:35:15.191Z,0.43
2023-03-27T11:37:54.120Z,0.40
2023-03-27T11:40:31.012Z,0.55
2023-03-27T11:42:58.182Z,0.90
2023-03-27T11:45:28.735Z,0.60
2023-03-27T11:48:11.008Z,0.50
2023-03-27T11:51:02.067Z,0.88
2023-03-27T11:53:48.565Z,0.30
2023-03-27T11:56:39.246Z,1.35
2023-03-27T11:59:40.670Z,1.75
2023-03-27T12:02:49.715Z,0.68
2023-03-27T12:05:28.609Z,1.30
2023-03-27T12:08:10.820Z,1.38
2023-03-27T12:10:39.705Z,1.08
2023-03-27T12:13:40.555Z,0.50
2023-03-27T12:16:33.216Z,0.57
2023-03-27T12:19:10.755Z,1.05
2023-03-27T12:21:47.029Z,0.40
2023-03-27T12:24:25.818Z,0.50
2023-03-27T12:27:05.872Z,0.63
2023-03-27T12:30:03.569Z,0.55
2023-03-27T12:32:39.675Z,0.20
2023-03-27T12:35:21.426Z,0.45
2023-03-27T12:37:59.233Z,0.30
2023-03-27T12:40:41.512Z,0.52
2023-03-27T12:43:27.260Z,0.77
2023-03-27T12:46:25.382Z,0.70
2023-03-27T12:49:14.345Z,0.73
2023-03-27T12:52:04.820Z,0.50
2023-03-27T12:54:34.536Z,0.53
2023-03-27T12:57:25.452Z,0.40
2023-03-27T12:59:59.542Z,0.22
2023-03-27T13:02:26.796Z,0.30
2023-03-27T13:05:35.730Z,1.05
2023-03-27T13:08:39.353Z,2.53
2023-03-27T13:11:27.696Z,2.67
2023-03-27T13:14:27.538Z,0.30
2023-03-27T13:17:12.892Z,0.68
2023-03-27T13:19:58.633Z,0.30
2023-03-27T13:22:25.674Z,0.50
2023-03-27T13:25:16.355Z,1.85
2023-03-27T13:28:11.175Z,0.45
2023-03-27T13:30:44.373Z,3.00
2023-03-27T13:33:36.204Z,0.35
2023-03-27T13:36:25.079Z,0.28
2023-03-27T13:38:55.395Z,2.25
2023-03-27T13:41:43.940Z,0.70
2023-03-27T13:44:16.020Z,1.77
2023-03-27T13:46:50.005Z,0.47
2023-03-27T13:49:35.524Z,2.47
2023-03-27T13:52:17.333Z,0.68
2023-03-27T13:55:11.141Z,1.77
2023-03-27T13:58:02.879Z,1.92
2023-03-27T14:00:29.972Z,1.33
2023-03-27T14:03:35.513Z,4.05
2023-03-27T14:06:09.975Z,1.25
2023-03-27T14:09:13.735Z,0.28
2023-03-27T14:12:15.447Z,0.45
2023-03-27T14:14:56.107Z,1.05
2023-03-27T14:17:41.459Z,2.88
2023-03-27T14:20:23.157Z,4.45
2023-03-27T14:22:57.419Z,0.70
2023-03-27T14:25:30.801Z,0.68
2023-03-27T14:27:58.507Z,0.73
2023-03-27T14:30:55.073Z,1.95
2023-03-27T14:33:22.450Z,0.52
2023-03-27T14:36:02.717Z,3.97
2023-03-27T14:38:31.530Z,1.38
2023-03-27T14:41:01.783Z,0.45
2023-03-27T14:43:32.219Z,3.10
2023-03-27T14:46:06.516Z,1.77
2023-03-27T14:48:34.032Z,1.85
2023-03-27T14:51:08.889Z,0.73
2023-03-27T14:53:45.701Z,2.00
2023-03-27T14:56:38.597Z,0.85
2023-03-27T14:59:16.133Z,0.50
2023-03-27T15:01:43.619Z,0.65
2023-03-27T15:04:14.538Z,0.50
2023-03-27T15:06:42.181Z,0.30
2023-03-27T15:09:19.520Z,0.80
2023-03-27T15:11:54.991Z,1.25
2023-03-27T15:14:30.177Z,0.63
2023-03-27T15:17:07.220Z,9.68
2023-03-27T15:19:43.784Z,14.40
2023-03-27T15:23:01.536Z,21.75
2023-03-27T15:25:43.012Z,4.80
2023-03-27T15:28:24.971Z,51.53
2023-03-27T15:30:56.570Z,17.17
2023-03-27T15:33:37.127Z,13.02
2023-03-27T15:36:22.857Z,8.50
2023-03-27T15:38:58.982Z,9.95
2023-03-27T15:41:37.361Z,17.15
2023-03-27T15:44:06.126Z,41.10
2023-03-27T15:46:44.350Z,73.13
2023-03-27T15:49:23.512Z,67.90
2023-03-27T15:51:50.700Z,57.15
2023-03-27T15:54:28.448Z,36.45
2023-03-27T15:57:09.717Z,28.95
2023-03-27T15:59:51.999Z,26.77
2023-03-27T16:02:24.408Z,28.95
2023-03-27T16:04:55.681Z,32.25
2023-03-27T16:07:28.400Z,18.77
2023-03-27T16:10:00.133Z,23.33
2023-03-27T16:12:50.843Z,15.77
2023-03-27T16:15:42.527Z,20.48
2023-03-27T16:18:24.779Z,12.55
2023-03-27T16:20:51.966Z,13.95
2023-03-27T16:23:19.029Z,13.80
2023-03-27T16:25:46.197Z,10.55
2023-03-27T16:28:14.666Z,5.78
2023-03-27T16:30:42.510Z,3.25
2023-03-27T16:33:15.791Z,10.23
2023-03-27T16:35:44.581Z,10.68
2023-03-27T16:38:12.240Z,4.60
2023-03-27T16:40:39.541Z,4.20
2023-03-27T16:43:06.969Z,29.20
2023-03-27T16:45:34.339Z,19.35
2023-03-27T16:48:01.526Z,61.85
2023-03-27T16:50:31.113Z,14.85
2023-03-27T16:52:58.133Z,7.93
2023-03-27T16:55:25.652Z,10.82
2023-03-27T16:57:56.186Z,14.23
2023-03-27T17:00:23.808Z,3.03
2023-03-27T17:02:51.232Z,5.97
2023-03-27T17:05:18.577Z,3.00
2023-03-27T17:07:47.167Z,3.28
2023-03-27T17:10:15.177Z,2.65
2023-03-27T17:12:42.548Z,1.85
2023-03-27T17:15:10.094Z,3.97
2023-03-27T17:17:37.275Z,1.88
2023-03-27T17:20:07.964Z,2.22
2023-03-27T17:22:35.568Z,2.83
2023-03-27T17:25:06.127Z,1.98
2023-03-27T17:27:34.173Z,1.90
2023-03-27T17:30:01.412Z,0.90
2023-03-27T17:32:28.699Z,3.15
2023-03-27T17:34:56.305Z,19.50
2023-03-27T17:37:24.286Z,13.23
2023-03-27T17:39:51.534Z,4.13
2023-03-27T17:42:18.699Z,13.35
2023-03-27T17:44:45.765Z,16.92
2023-03-27T17:47:13.670Z,49.20
2023-03-27T17:49:43.724Z,32.67
2023-03-27T17:52:12.543Z,72.45
2023-03-27T17:54:40.738Z,41.22
2023-03-27T17:57:07.909Z,37.80
2023-03-27T17:59:36.799Z,50.65
2023-03-27T18:02:05.683Z,74.60
2023-03-27T18:04:33.582Z,23.20
2023-03-27T18:07:00.815Z,25.48
2023-03-27T18:09:28.914Z,18.83
2023-03-27T18:11:56.206Z,22.95
2023-03-27T18:14:23.423Z,31.40
2023-03-27T18:16:52.070Z,51.80
2023-03-27T18:19:20.029Z,9.18
2023-03-27T18:21:47.975Z,15.65
2023-03-27T18:24:16.678Z,113.63
2023-03-27T18:26:44.086Z,49.40
2023-03-27T18:29:12.527Z,52.83
2023-03-27T18:31:40.900Z,24.48
2023-03-27T18:34:09.366Z,35.20
2023-03-27T18:36:36.494Z,75.55
2023-03-27T18:39:05.071Z,74.68
2023-03-27T18:41:33.404Z,30.40
2023-03-27T18:44:00.649Z,65.00
2023-03-27T18:46:28.382Z,43.03
2023-03-27T18:48:56.001Z,47.35
2023-03-27T18:51:24.375Z,30.60
2023-03-27T18:53:51.602Z,29.73
2023-03-27T18:56:19.160Z,44.70
2023-03-27T18:58:47.658Z,31.02
2023-03-27T19:01:14.960Z,22.38
2023-03-27T19:03:42.940Z,13.23
2023-03-27T19:06:12.627Z,15.88
2023-03-27T19:08:42.506Z,16.88
2023-03-27T19:11:11.933Z,14.77
2023-03-27T19:13:39.044Z,17.00
2023-03-27T19:16:19.857Z,16.33
2023-03-27T19:18:47.289Z,18.40
2023-03-27T19:21:16.582Z,11.77
2023-03-27T19:23:43.832Z,15.30
2023-03-27T19:26:16.277Z,13.25
2023-03-27T19:28:49.412Z,16.48
2023-03-27T19:31:17.764Z,7.85
2023-03-27T19:33:49.231Z,10.90
2023-03-27T19:36:17.862Z,22.38
2023-03-27T19:38:45.348Z,13.40
2023-03-27T19:41:13.472Z,9.48
2023-03-27T19:43:42.924Z,13.27
2023-03-27T19:48:41.610Z,10.05
2023-03-27T19:51:09.316Z,11.55
2023-03-27T19:53:38.790Z,13.63
2023-03-27T19:56:07.999Z,13.20
2023-03-27T19:58:36.484Z,21.42
2023-03-27T20:01:05.253Z,32.88
2023-03-27T20:03:34.412Z,22.80
2023-03-27T20:06:06.813Z,18.05
2023-03-27T20:08:40.023Z,13.90
2023-03-27T20:11:07.655Z,13.23
2023-03-27T20:13:42.378Z,11.13
2023-03-27T20:16:14.872Z,16.23
2023-03-27T20:18:43.769Z,17.05
2023-03-27T20:21:15.578Z,14.40
2023-03-27T20:23:44.017Z,18.25
2023-03-27T20:26:12.822Z,16.35
2023-03-27T20:28:43.739Z,11.50
2023-03-27T20:31:12.894Z,17.35
2023-03-27T20:33:42.351Z,12.20
2023-03-27T20:36:10.405Z,20.40
2023-03-27T20:38:38.240Z,13.40
2023-03-27T20:41:07.401Z,3.38
2023-03-27T20:43:41.580Z,6.38
2023-03-27T20:46:13.073Z,6.13
2023-03-27T20:48:42.966Z,7.78
2023-03-27T20:51:25.056Z,8.18
2023-03-27T20:53:56.641Z,6.38
2023-03-27T20:56:24.593Z,3.47
2023-03-27T20:58:52.607Z,3.30
2023-03-27T21:01:20.154Z,3.15
2023-03-27T21:03:50.122Z,6.10
2023-03-27T21:06:23.490Z,6.32
2023-03-27T21:08:55.150Z,3.90
2023-03-27T21:13:50.906Z,7.65
2023-03-27T21:16:18.324Z,4.35
2023-03-27T21:18:45.760Z,7.15
2023-03-27T21:21:13.172Z,8.73
2023-03-27T21:23:40.291Z,4.15
2023-03-27T21:26:08.089Z,5.03
2023-03-27T21:28:35.332Z,45.17
2023-03-27T21:31:07.704Z,10.77
2023-03-27T21:33:35.080Z,11.15
2023-03-27T21:36:03.025Z,11.32
2023-03-27T21:38:31.004Z,11.93
2023-03-27T21:40:58.168Z,12.10
2023-03-27T21:43:25.430Z,5.70
2023-03-27T21:45:52.541Z,8.75
2023-03-27T21:48:19.715Z,7.13
2023-03-27T21:50:47.588Z,3.97
2023-03-27T21:53:15.191Z,4.35
2023-03-27T21:55:42.947Z,8.15
2023-03-27T21:58:10.162Z,7.63
2023-03-27T22:00:37.443Z,5.38
2023-03-27T22:03:04.655Z,4.50
2023-03-27T22:05:32.022Z,7.43
2023-03-27T22:07:59.369Z,4.05
2023-03-27T22:10:26.834Z,1.50
2023-03-27T22:12:53.909Z,2.70
2023-03-27T22:15:21.013Z,2.83
2023-03-27T22:17:49.451Z,1.77
2023-03-27T22:20:16.786Z,6.47
2023-03-27T22:22:43.976Z,2.90
2023-03-27T22:25:11.179Z,1.17
2023-03-27T22:27:39.772Z,3.05
2023-03-27T22:30:08.550Z,4.10
2023-03-27T22:32:36.087Z,3.65
2023-03-27T22:35:03.203Z,2.53
2023-03-27T22:37:30.190Z,5.50
2023-03-27T22:39:57.272Z,2.95
2023-03-27T22:42:24.231Z,5.05
2023-03-27T22:44:51.677Z,2.40
2023-03-27T22:47:18.860Z,3.03
2023-03-27T22:49:45.908Z,2.28
2023-03-27T22:52:12.880Z,1.48
2023-03-27T22:54:40.558Z,2.00
2023-03-27T22:57:08.082Z,1.13
2023-03-27T22:59:35.643Z,1.13
2023-03-27T23:02:02.753Z,1.55
2023-03-27T23:04:29.800Z,0.90
2023-03-27T23:06:56.775Z,0.82
2023-03-27T23:09:23.709Z,1.40
2023-03-27T23:11:50.971Z,0.80
2023-03-27T23:14:17.947Z,0.95
2023-03-27T23:16:44.973Z,1.02
2023-03-27T23:19:11.986Z,2.45
2023-03-27T23:21:38.998Z,1.63
2023-03-27T23:24:06.368Z,1.73
2023-03-27T23:26:33.323Z,1.15
2023-03-27T23:29:00.249Z,2.08
2023-03-27T23:31:27.274Z,1.85
2023-03-27T23:33:54.197Z,2.70
2023-03-27T23:36:23.927Z,1.17
2023-03-27T23:38:52.593Z,0.88
2023-03-27T23:41:20.690Z,1.38
2023-03-27T23:43:48.614Z,1.05
2023-03-27T23:46:15.902Z,2.45
2023-03-27T23:48:44.011Z,1.13
2023-03-27T23:51:12.435Z,1.27
2023-03-27T23:53:39.753Z,1.65
2023-03-27T23:56:07.269Z,1.40
2023-03-27T23:58:34.370Z,1.55
